createdAt,value
2022-11-12T00:03:28.910Z,57.77
2022-11-12T00:10:33.740Z,57.78
2022-11-12T00:17:40.551Z,57.84
2022-11-12T00:24:44.731Z,57.66
2022-11-12T00:31:48.624Z,57.39
2022-11-12T00:38:55.330Z,57.65
2022-11-12T00:45:59.304Z,57.62
2022-11-12T00:53:03.479Z,57.37
2022-11-12T01:00:17.103Z,57.41
2022-11-12T01:07:21.159Z,57.25
2022-11-12T01:14:25.361Z,57.47
2022-11-12T01:21:34.349Z,57.45
2022-11-12T01:28:39.012Z,57.48
2022-11-12T01:35:42.872Z,57.54
2022-11-12T01:42:55.488Z,57.69
2022-11-12T01:50:04.155Z,57.60
2022-11-12T01:57:08.671Z,57.57
2022-11-12T02:04:15.389Z,57.35
2022-11-12T02:11:20.840Z,56.83
2022-11-12T02:18:25.211Z,57.49
2022-11-12T02:25:32.476Z,57.42
2022-11-12T02:32:36.557Z,57.36
2022-11-12T02:39:40.650Z,57.30
2022-11-12T02:46:47.384Z,57.57
2022-11-12T02:53:51.451Z,57.45
2022-11-12T03:00:56.434Z,57.54
2022-11-12T03:08:05.743Z,57.48
2022-11-12T03:15:11.142Z,57.63
2022-11-12T03:22:15.291Z,57.63
2022-11-12T03:29:22.125Z,57.67
2022-11-12T03:36:25.923Z,57.55
2022-11-12T03:43:29.731Z,57.50
2022-11-12T04:04:44.784Z,57.64
2022-11-12T04:11:48.900Z,57.72
2022-11-12T04:19:08.537Z,57.85
2022-11-12T04:26:27.440Z,57.65
2022-11-12T04:33:31.332Z,57.56
2022-11-12T04:40:48.437Z,57.74
2022-11-12T04:47:55.454Z,57.74
2022-11-12T04:55:00.463Z,57.85
2022-11-12T05:01:52.254Z,57.59
2022-11-12T05:08:59.049Z,57.91
2022-11-12T05:16:02.912Z,57.77
2022-11-12T05:23:07.850Z,58.13
2022-11-12T05:30:16.708Z,58.04
2022-11-12T05:37:21.085Z,58.11
2022-11-12T05:44:25.009Z,58.32
2022-11-12T05:51:31.535Z,58.25
2022-11-12T05:58:35.545Z,58.18
2022-11-12T06:05:39.880Z,58.15
2022-11-12T06:12:46.631Z,58.21
2022-11-12T06:19:50.658Z,58.08
2022-11-12T06:26:54.563Z,57.71
2022-11-12T06:34:01.643Z,57.76
2022-11-12T06:41:06.873Z,57.60
2022-11-12T06:48:10.752Z,57.58
2022-11-12T06:55:17.346Z,57.52
2022-11-12T07:02:21.420Z,57.57
2022-11-12T07:09:25.510Z,57.46
2022-11-12T07:16:31.947Z,57.46
2022-11-12T07:23:38.832Z,57.41
2022-11-12T07:30:42.813Z,57.16
2022-11-12T07:37:49.392Z,57.48
2022-11-12T07:44:53.835Z,57.27
2022-11-12T07:51:58.017Z,57.40
2022-11-12T07:59:04.647Z,57.44
2022-11-12T08:06:09.773Z,57.23
2022-11-12T08:13:13.683Z,57.36
2022-11-12T08:20:20.689Z,57.39
2022-11-12T08:27:24.819Z,57.21
2022-11-12T08:34:28.726Z,57.25
2022-11-12T08:41:35.604Z,57.34
2022-11-12T08:48:40.344Z,57.39
2022-11-12T08:55:44.596Z,57.45
2022-11-12T09:02:51.490Z,57.29
2022-11-12T09:09:55.539Z,57.12
2022-11-12T09:16:59.339Z,57.15
2022-11-12T09:24:07.075Z,57.36
2022-11-12T09:31:12.121Z,57.43
2022-11-12T09:38:17.868Z,57.38
2022-11-12T09:45:32.659Z,57.55
2022-11-12T09:52:37.032Z,57.23
2022-11-12T09:59:45.081Z,57.27
2022-11-12T10:07:00.445Z,57.41
2022-11-12T10:14:18.760Z,57.17
2022-11-12T10:21:32.586Z,57.19
2022-11-12T10:28:48.960Z,57.38
2022-11-12T10:35:54.648Z,57.17
2022-11-12T10:43:04.827Z,57.19
2022-11-12T10:50:21.980Z,57.29
2022-11-12T10:57:29.076Z,56.82
2022-11-12T11:04:35.644Z,56.93
2022-11-12T11:11:53.626Z,57.43
2022-11-12T11:19:01.790Z,56.98
2022-11-12T11:26:23.676Z,57.15
2022-11-12T11:33:43.259Z,57.11
2022-11-12T11:40:59.353Z,57.13
2022-11-12T11:48:18.883Z,57.23
2022-11-12T11:55:45.807Z,57.25
2022-11-12T12:03:19.606Z,57.02
2022-11-12T12:10:53.344Z,56.94
2022-11-12T12:18:06.506Z,56.86
2022-11-12T12:25:17.405Z,56.79
2022-11-12T12:32:26.237Z,56.82
2022-11-12T12:39:47.648Z,56.86
2022-11-12T12:46:59.860Z,56.83
2022-11-12T12:54:04.935Z,56.65
2022-11-12T13:01:29.689Z,56.85
2022-11-12T13:08:39.928Z,56.60
2022-11-12T13:15:49.407Z,56.35
2022-11-12T13:22:56.467Z,56.56
2022-11-12T13:30:00.121Z,55.82
2022-11-12T13:37:08.569Z,56.18
2022-11-12T13:44:18.920Z,55.92
2022-11-12T13:51:32.069Z,56.57
2022-11-12T13:58:40.004Z,56.37
2022-11-12T14:05:52.303Z,56.45
2022-11-12T14:13:18.837Z,56.54
2022-11-12T14:20:30.696Z,56.46
2022-11-12T14:27:40.554Z,56.42
2022-11-12T14:34:44.563Z,56.11
2022-11-12T14:41:50.970Z,56.36
2022-11-12T14:49:02.000Z,56.34
2022-11-12T14:56:08.849Z,56.21
2022-11-12T15:03:20.670Z,56.15
2022-11-12T15:10:40.280Z,56.39
2022-11-12T15:17:44.425Z,56.17
2022-11-12T15:24:49.901Z,56.06
2022-11-12T15:31:58.947Z,56.34
2022-11-12T15:39:03.982Z,56.39
2022-11-12T15:46:08.195Z,56.29
2022-11-12T15:53:15.297Z,56.40
2022-11-12T16:00:23.073Z,56.30
2022-11-12T16:07:27.203Z,56.42
2022-11-12T16:14:34.415Z,56.16
2022-11-12T16:21:38.417Z,56.11
2022-11-12T16:28:43.853Z,55.86
2022-11-12T16:35:50.885Z,55.66
2022-11-12T16:42:55.562Z,55.29
2022-11-12T16:49:59.643Z,55.54
2022-11-12T16:57:06.308Z,55.95
2022-11-12T17:04:10.644Z,55.71
2022-11-12T17:11:14.856Z,56.09
2022-11-12T17:18:21.558Z,56.29
2022-11-12T17:25:25.396Z,56.58
2022-11-12T17:32:29.407Z,56.56
2022-11-12T17:39:36.151Z,56.69
2022-11-12T17:46:40.280Z,56.76
2022-11-12T17:53:45.008Z,56.60
2022-11-12T18:00:51.885Z,56.68
2022-11-12T18:07:56.053Z,56.49
2022-11-12T18:15:00.177Z,56.48
2022-11-12T18:22:07.796Z,56.81
2022-11-12T18:29:12.610Z,57.05
2022-11-12T18:36:19.738Z,56.92
2022-11-12T18:43:26.379Z,57.25
2022-11-12T18:50:30.568Z,56.58
2022-11-12T18:57:34.466Z,57.37
2022-11-12T19:04:45.170Z,57.08
2022-11-12T19:11:49.432Z,57.24
2022-11-12T19:18:56.020Z,57.72
2022-11-12T19:26:03.820Z,57.71
2022-11-12T19:33:07.715Z,57.76
2022-11-12T19:40:14.367Z,57.46
2022-11-12T19:47:20.870Z,57.65
2022-11-12T19:54:24.722Z,57.79
2022-11-12T20:01:28.796Z,57.76
2022-11-12T20:08:35.895Z,57.63
2022-11-12T20:15:41.260Z,57.06
2022-11-12T20:22:45.070Z,57.64
2022-11-12T20:29:51.892Z,57.68
2022-11-12T20:36:57.973Z,57.50
2022-11-12T20:44:03.423Z,57.65
2022-11-12T20:51:23.666Z,57.63
2022-11-12T20:58:29.927Z,57.50
2022-11-12T21:05:34.384Z,57.63
2022-11-12T21:12:40.943Z,57.53
2022-11-12T21:19:45.146Z,57.45
2022-11-12T21:26:51.037Z,57.71
2022-11-12T21:34:01.020Z,57.87
2022-11-12T21:41:07.730Z,57.78
2022-11-12T21:48:11.688Z,57.72
2022-11-12T21:55:18.228Z,57.61
2022-11-12T22:02:22.285Z,57.46
2022-11-12T22:09:26.279Z,57.48
2022-11-12T22:16:33.023Z,57.40
2022-11-12T22:23:38.545Z,57.24
2022-11-12T22:30:42.859Z,57.03
2022-11-12T22:37:49.493Z,57.03
2022-11-12T22:44:53.416Z,56.88
2022-11-12T22:51:57.516Z,56.51
2022-11-12T22:59:05.221Z,56.67
2022-11-12T23:06:10.047Z,56.37
2022-11-12T23:13:14.169Z,56.56
2022-11-12T23:20:21.228Z,56.80
2022-11-12T23:27:25.424Z,56.42
2022-11-12T23:34:29.455Z,56.46
2022-11-12T23:41:36.039Z,56.55
2022-11-12T23:48:40.689Z,56.47
2022-11-12T23:55:45.357Z,56.32
